Terminal Aerodrome Forecast
Issued by NWS

Current Version | Previous Version | Graphics & Text | Print | Product List | Glossary On
Versions: 1 2 3 4 5 6 7 8 9 10 11 12 13 14 15 16 17 18 19
465
FTUS41 KILN 232339
TAFLUK
TAF
KLUK 232339Z 2400/2424 16009KT P6SM OVC090
     FM240500 20006KT P6SM BKN180 WS020/21040KT
     FM241300 20010KT P6SM OVC040
     FM241800 20013G20KT P6SM BKN035=

USA.gov is the U.S. government's official web portal to all federal, state and local government web resources and services.